Terminal Aerodrome Forecast
Issued by NWS Northern Indiana

Home | Current Version | Previous Version | Text Only | Print | Product List | Glossary On
Versions: 1 2 3 4 5 6 7 8 9 10 11 12
439
FTUS43 KIWX 222330
TAFFWA
TAF
KFWA 222330Z 2300/2324 17008KT P6SM OVC070
     FM230700 14005KT P6SM -RA OVC060
     FM231200 11005KT 3SM -RA OVC020
     FM231500 13006KT 3SM -RA OVC010=

USA.gov is the U.S. government's official web portal to all federal, state and local government web resources and services.